createdAt,value
2022-12-31T00:01:44.041Z,100105.34
2022-12-31T00:04:10.503Z,100123.69
2022-12-31T00:06:37.377Z,100108.59
2022-12-31T00:09:06.876Z,100116.34
2022-12-31T00:11:34.343Z,100114.34
2022-12-31T00:14:01.211Z,100152.66
2022-12-31T00:16:30.173Z,100153.09
2022-12-31T00:19:01.693Z,100166.34
2022-12-31T00:21:30.449Z,100168.41
2022-12-31T00:23:57.724Z,100179.63
2022-12-31T00:26:28.149Z,100199.25
2022-12-31T00:28:56.555Z,100202.06
2022-12-31T00:31:34.501Z,100207.59
2022-12-31T00:34:01.446Z,100021.97
2022-12-31T00:36:30.889Z,100122.09
2022-12-31T00:38:58.904Z,100142.88
2022-12-31T00:41:28.177Z,100188.78
2022-12-31T00:43:55.664Z,100184.13
2022-12-31T00:46:22.572Z,100189.84
2022-12-31T00:48:49.569Z,100192.13
2022-12-31T00:51:18.424Z,100199.13
2022-12-31T00:53:45.011Z,100180.41
2022-12-31T00:56:14.678Z,100196.31
2022-12-31T00:58:42.032Z,100201.84
2022-12-31T01:01:22.673Z,100194.53
2022-12-31T01:03:52.176Z,100185.38
2022-12-31T01:06:19.688Z,100186.41
2022-12-31T01:08:49.107Z,100146.94
2022-12-31T01:11:19.203Z,100164.03
2022-12-31T01:13:54.853Z,100151.00
2022-12-31T01:16:24.642Z,100165.25
2022-12-31T01:18:51.867Z,100178.28
2022-12-31T01:21:20.395Z,100185.41
2022-12-31T01:23:46.998Z,100285.16
2022-12-31T01:26:15.751Z,100283.34
2022-12-31T01:28:42.661Z,100288.00
2022-12-31T01:31:11.634Z,100289.03
2022-12-31T01:33:38.784Z,100286.78
2022-12-31T01:36:27.058Z,100272.09
2022-12-31T01:38:58.244Z,100264.56
2022-12-31T01:41:28.516Z,100269.03
2022-12-31T01:43:58.716Z,100277.38
2022-12-31T01:46:28.291Z,100297.72
2022-12-31T01:49:03.101Z,100298.75
2022-12-31T01:51:33.476Z,100303.63
2022-12-31T01:54:01.945Z,100317.25
2022-12-31T01:56:28.626Z,100311.78
2022-12-31T01:58:57.063Z,100309.31
2022-12-31T02:01:31.072Z,100313.59
2022-12-31T02:03:59.511Z,100335.16
2022-12-31T02:06:33.857Z,100302.59
2022-12-31T02:09:01.035Z,100314.19
2022-12-31T02:11:31.250Z,100312.19
2022-12-31T02:14:02.277Z,100322.34
2022-12-31T02:16:43.769Z,100322.63
2022-12-31T02:19:45.827Z,100310.03
2022-12-31T02:22:21.287Z,100299.03
2022-12-31T02:25:12.038Z,100301.50
2022-12-31T02:27:47.565Z,100299.88
2022-12-31T02:30:21.049Z,100291.94
2022-12-31T02:33:10.501Z,100299.88
2022-12-31T02:35:44.936Z,100598.03
2022-12-31T02:38:22.649Z,100437.94
2022-12-31T02:40:49.748Z,100412.28
2022-12-31T02:43:16.283Z,100407.19
2022-12-31T02:45:50.683Z,100418.19
2022-12-31T02:48:55.768Z,100413.53
2022-12-31T02:51:53.757Z,100401.91
2022-12-31T02:54:29.230Z,100416.19
2022-12-31T02:57:21.388Z,100421.88
2022-12-31T03:00:16.476Z,100439.38
2022-12-31T03:02:46.142Z,100416.59
2022-12-31T03:05:15.662Z,100422.09
2022-12-31T03:07:43.846Z,100422.72
2022-12-31T03:10:10.671Z,100413.13
2022-12-31T03:12:46.963Z,100417.81
2022-12-31T03:15:20.661Z,100412.53
2022-12-31T03:17:48.277Z,100410.91
2022-12-31T03:20:33.576Z,100406.84
2022-12-31T03:23:00.856Z,100418.22
2022-12-31T03:25:33.404Z,100404.19
2022-12-31T03:28:07.911Z,100405.81
2022-12-31T03:30:35.162Z,100411.13
2022-12-31T03:33:02.386Z,100421.50
2022-12-31T03:35:31.391Z,100435.38
2022-12-31T03:37:58.019Z,100426.81
2022-12-31T03:40:27.443Z,100433.16
2022-12-31T03:42:54.015Z,100425.00
2022-12-31T03:45:20.972Z,100429.13
2022-12-31T03:47:48.095Z,100430.13
2022-12-31T03:50:17.094Z,100430.31
2022-12-31T03:52:44.282Z,100427.88
2022-12-31T03:55:12.136Z,100442.59
2022-12-31T03:57:38.854Z,100434.00
2022-12-31T04:00:08.157Z,100453.19
2022-12-31T04:02:34.811Z,100432.56
2022-12-31T04:05:01.397Z,100450.13
2022-12-31T04:07:27.858Z,100452.34
2022-12-31T04:09:54.427Z,100448.47
2022-12-31T04:12:20.959Z,100441.56
2022-12-31T04:14:47.445Z,100447.47
2022-12-31T04:17:13.917Z,100240.94
2022-12-31T04:19:40.462Z,100417.50
2022-12-31T04:22:06.946Z,100489.28
2022-12-31T04:24:33.657Z,100411.56
2022-12-31T04:27:07.013Z,100435.47
2022-12-31T04:29:34.082Z,100452.78
2022-12-31T04:32:00.886Z,100482.16
2022-12-31T04:34:27.996Z,100491.91
2022-12-31T04:36:54.483Z,100489.28
2022-12-31T04:39:21.041Z,100507.81
2022-12-31T04:41:48.674Z,100500.69
2022-12-31T04:44:15.454Z,100503.56
2022-12-31T04:46:41.962Z,100506.19
2022-12-31T04:49:08.921Z,100510.69
2022-12-31T04:51:36.416Z,100520.25
2022-12-31T04:54:03.636Z,100538.63
2022-12-31T04:56:30.856Z,100544.94
2022-12-31T04:58:57.397Z,100554.31
2022-12-31T05:01:24.863Z,100567.16
2022-12-31T05:03:51.710Z,100563.09
2022-12-31T05:06:21.379Z,100574.72
2022-12-31T05:08:48.978Z,100576.16
2022-12-31T05:11:16.318Z,100593.53
2022-12-31T05:13:43.537Z,100719.41
2022-12-31T05:16:10.866Z,100620.06
2022-12-31T05:18:37.689Z,100609.69
2022-12-31T05:21:04.760Z,100627.69
2022-12-31T05:23:31.336Z,100646.31
2022-12-31T05:25:59.722Z,100646.72
2022-12-31T05:28:26.598Z,100647.94
2022-12-31T05:30:53.256Z,100666.72
2022-12-31T05:33:20.689Z,100666.53
2022-12-31T05:35:47.621Z,100675.31
2022-12-31T05:38:14.227Z,100684.72
2022-12-31T05:40:40.726Z,100705.75
2022-12-31T05:43:07.697Z,100689.19
2022-12-31T05:45:34.473Z,100706.78
2022-12-31T05:48:01.127Z,100807.31
2022-12-31T05:50:27.675Z,100731.91
2022-12-31T05:52:54.265Z,100745.38
2022-12-31T05:55:20.844Z,100742.72
2022-12-31T05:57:47.365Z,100748.47
2022-12-31T06:00:14.627Z,100770.53
2022-12-31T06:02:41.378Z,100760.50
2022-12-31T06:05:08.291Z,100768.47
2022-12-31T06:07:34.844Z,100771.13
2022-12-31T06:10:01.352Z,100788.50
2022-12-31T06:12:27.821Z,100777.69
2022-12-31T06:14:54.304Z,100729.88
2022-12-31T06:17:22.410Z,100774.19
2022-12-31T06:19:49.256Z,100883.53
2022-12-31T06:22:16.327Z,100787.69
2022-12-31T06:24:42.809Z,100784.44
2022-12-31T06:27:09.408Z,100805.09
2022-12-31T06:29:35.959Z,100829.41
2022-12-31T06:32:02.662Z,100836.97
2022-12-31T06:34:29.146Z,100834.31
2022-12-31T06:36:55.666Z,100851.72
2022-12-31T06:39:22.324Z,100870.69
2022-12-31T06:41:49.205Z,100892.59
2022-12-31T06:44:15.754Z,100898.53
2022-12-31T06:46:42.809Z,100907.34
2022-12-31T06:49:09.587Z,100905.47
2022-12-31T06:51:36.147Z,100897.06
2022-12-31T06:54:02.629Z,100906.44
2022-12-31T06:56:34.523Z,100899.44
2022-12-31T06:59:02.508Z,100903.13
2022-12-31T07:01:29.332Z,100898.19
2022-12-31T07:04:13.224Z,100909.19
2022-12-31T07:07:05.192Z,100916.16
2022-12-31T07:09:44.836Z,100923.91
2022-12-31T07:12:15.723Z,100889.59
2022-12-31T07:15:02.844Z,100881.78
2022-12-31T07:17:29.238Z,100918.81
2022-12-31T07:20:15.824Z,100907.13
2022-12-31T07:22:42.648Z,100943.88
2022-12-31T07:25:17.053Z,100932.41
2022-12-31T07:28:07.196Z,100929.56
2022-12-31T07:30:47.422Z,100961.63
2022-12-31T07:33:50.743Z,100979.19
2022-12-31T07:36:29.224Z,100977.53
2022-12-31T07:39:04.610Z,100996.94
2022-12-31T07:41:39.869Z,101013.50
2022-12-31T07:44:30.478Z,101012.34
2022-12-31T07:46:59.777Z,101029.09
2022-12-31T07:49:28.491Z,101041.38
2022-12-31T07:51:55.429Z,101009.72
2022-12-31T07:54:22.624Z,100988.88
2022-12-31T07:56:50.270Z,100986.47
2022-12-31T07:59:48.851Z,101010.00
2022-12-31T08:02:18.243Z,101004.47
2022-12-31T08:05:05.951Z,101024.56
2022-12-31T08:07:56.508Z,101028.03
2022-12-31T08:10:50.068Z,101031.28
2022-12-31T08:13:17.385Z,101086.34
2022-12-31T08:15:44.212Z,101027.84
2022-12-31T08:18:11.010Z,101019.84
2022-12-31T08:20:58.371Z,100990.81
2022-12-31T08:23:32.790Z,101009.25
2022-12-31T08:26:17.815Z,101012.94
2022-12-31T08:28:47.235Z,101009.47
2022-12-31T08:31:21.303Z,100988.41
2022-12-31T08:34:29.854Z,100979.59
2022-12-31T08:37:06.710Z,100946.25
2022-12-31T08:39:33.206Z,100527.59
2022-12-31T08:42:03.722Z,100751.22
2022-12-31T08:45:08.827Z,100994.94
2022-12-31T08:47:59.537Z,100757.78
2022-12-31T08:50:27.409Z,100600.38
2022-12-31T08:52:54.387Z,100708.84
2022-12-31T08:55:21.483Z,100692.47
2022-12-31T08:58:05.902Z,100694.50
2022-12-31T09:00:35.099Z,100688.38
2022-12-31T09:03:19.418Z,100721.72
2022-12-31T09:06:04.461Z,100714.97
2022-12-31T09:08:51.953Z,100717.22
2022-12-31T09:11:30.951Z,100716.56
2022-12-31T09:14:00.074Z,100724.97
2022-12-31T09:16:29.369Z,100765.09
2022-12-31T09:18:55.891Z,100785.56
2022-12-31T09:21:22.681Z,100431.22
2022-12-31T09:23:49.652Z,100687.88
2022-12-31T09:26:25.109Z,100696.09
2022-12-31T09:29:19.328Z,100687.88
2022-12-31T09:32:04.159Z,100696.88
2022-12-31T09:34:45.950Z,100686.84
2022-12-31T09:37:21.514Z,100685.97
2022-12-31T09:39:48.963Z,100679.81
2022-12-31T09:42:30.336Z,100736.34
2022-12-31T09:45:24.771Z,100722.63
2022-12-31T09:48:18.826Z,100774.66
2022-12-31T09:51:19.164Z,100759.72
2022-12-31T09:54:20.774Z,100773.03
2022-12-31T09:57:07.935Z,101083.41
2022-12-31T09:59:50.857Z,100819.91
2022-12-31T10:02:38.594Z,100817.25
2022-12-31T10:05:29.716Z,100832.00
2022-12-31T10:08:15.147Z,100835.50
2022-12-31T10:10:58.715Z,100848.59
2022-12-31T10:13:34.375Z,100865.16
2022-12-31T10:16:15.827Z,100840.19
2022-12-31T10:18:51.157Z,100819.50
2022-12-31T10:21:48.498Z,100807.38
2022-12-31T10:24:34.231Z,100806.56
2022-12-31T10:27:14.176Z,100772.34
2022-12-31T10:29:47.851Z,100761.47
2022-12-31T10:32:40.031Z,100745.50
2022-12-31T10:35:27.396Z,100718.44
2022-12-31T10:37:57.026Z,100337.72
2022-12-31T10:40:32.669Z,100006.78
2022-12-31T10:43:17.221Z,99908.88
2022-12-31T10:46:25.566Z,100023.69
2022-12-31T10:49:25.669Z,100015.00
2022-12-31T10:52:10.557Z,100008.75
2022-12-31T10:55:05.163Z,99991.28
2022-12-31T10:57:45.644Z,100004.59
2022-12-31T11:00:16.916Z,99991.88
2022-12-31T11:02:52.631Z,100008.75
2022-12-31T11:05:31.036Z,99985.97
2022-12-31T11:08:34.777Z,99972.19
2022-12-31T11:11:07.181Z,99962.72
2022-12-31T11:13:52.359Z,99944.56
2022-12-31T11:16:30.826Z,99932.38
2022-12-31T11:19:23.176Z,99921.97
2022-12-31T11:22:16.282Z,99905.75
2022-12-31T11:24:54.860Z,99912.81
2022-12-31T11:27:47.678Z,99902.97
2022-12-31T11:30:21.756Z,99889.91
2022-12-31T11:33:14.024Z,99874.63
2022-12-31T11:36:01.736Z,99852.19
2022-12-31T11:38:37.701Z,99847.31
2022-12-31T11:41:19.438Z,99835.50
2022-12-31T11:44:00.871Z,99834.47
2022-12-31T11:47:03.760Z,99823.00
2022-12-31T11:49:54.044Z,99800.69
2022-12-31T11:52:26.628Z,99802.31
2022-12-31T11:55:03.648Z,99781.34
2022-12-31T11:57:30.104Z,99782.47
2022-12-31T12:00:01.797Z,99780.97
2022-12-31T12:02:37.519Z,99757.00
2022-12-31T12:05:10.949Z,99752.00
2022-12-31T12:07:37.870Z,99762.31
2022-12-31T12:10:19.448Z,99727.47
2022-12-31T12:12:45.959Z,99716.25
2022-12-31T12:15:20.473Z,99723.22
2022-12-31T12:17:54.805Z,99698.59
2022-12-31T12:20:32.844Z,99709.47
2022-12-31T12:23:12.572Z,99701.31
2022-12-31T12:25:42.899Z,99684.47
2022-12-31T12:28:22.676Z,99704.97
2022-12-31T12:30:59.607Z,99684.69
2022-12-31T12:33:26.845Z,99692.69
2022-12-31T12:35:53.340Z,99698.72
2022-12-31T12:38:22.960Z,99689.44
2022-12-31T12:41:02.250Z,99673.16
2022-12-31T12:43:35.095Z,99676.03
2022-12-31T12:46:18.546Z,99683.16
2022-12-31T12:48:47.906Z,99662.09
2022-12-31T12:51:41.492Z,99669.03
2022-12-31T12:54:44.076Z,99653.97
2022-12-31T12:57:25.501Z,99664.63
2022-12-31T13:00:04.608Z,99663.56
2022-12-31T13:03:15.230Z,99664.28
2022-12-31T13:06:25.810Z,99649.59
2022-12-31T13:09:03.102Z,99587.84
2022-12-31T13:12:07.077Z,99582.59
2022-12-31T13:15:03.266Z,99573.47
2022-12-31T13:17:58.595Z,99568.69
2022-12-31T13:20:53.920Z,99568.28
2022-12-31T13:23:27.443Z,99562.88
2022-12-31T13:26:16.660Z,99550.66
2022-12-31T13:28:46.767Z,99550.56
2022-12-31T13:31:18.151Z,99546.22
2022-12-31T13:33:49.709Z,99553.28
2022-12-31T13:36:19.715Z,99557.81
2022-12-31T13:38:51.423Z,99553.03
2022-12-31T13:41:27.085Z,99556.75
2022-12-31T13:44:11.087Z,99554.66
2022-12-31T13:46:46.267Z,99566.31
2022-12-31T13:49:25.544Z,99573.94
2022-12-31T13:52:16.768Z,99587.88
2022-12-31T13:54:52.227Z,99610.47
2022-12-31T13:57:49.904Z,99616.69
2022-12-31T14:00:45.501Z,99629.03
2022-12-31T14:03:35.822Z,99647.59
2022-12-31T14:06:21.320Z,99659.34
2022-12-31T14:08:47.980Z,99673.03
2022-12-31T14:11:36.338Z,99694.81
2022-12-31T14:14:35.474Z,99717.00
2022-12-31T14:17:17.646Z,99751.22
2022-12-31T14:19:55.348Z,99786.84
2022-12-31T14:22:36.354Z,99809.09
2022-12-31T14:25:08.734Z,99836.06
2022-12-31T14:27:41.824Z,99862.47
2022-12-31T14:30:23.589Z,99899.44
2022-12-31T14:33:38.784Z,99923.53
2022-12-31T14:36:43.487Z,99954.47
2022-12-31T14:39:37.587Z,99963.03
2022-12-31T14:42:30.346Z,99973.84
2022-12-31T14:45:21.074Z,99970.44
2022-12-31T14:47:54.745Z,99972.00
2022-12-31T14:50:27.354Z,99974.50
2022-12-31T14:52:55.165Z,99993.19
2022-12-31T14:55:24.281Z,99994.69
2022-12-31T14:58:26.341Z,99982.66
2022-12-31T15:00:59.371Z,100005.25
2022-12-31T15:03:42.920Z,99998.53
2022-12-31T15:06:23.820Z,100008.72
2022-12-31T15:09:08.189Z,100004.41
2022-12-31T15:12:00.738Z,99987.31
2022-12-31T15:14:57.539Z,99995.06
2022-12-31T15:17:36.140Z,100004.22
2022-12-31T15:20:16.924Z,100008.75
2022-12-31T15:22:49.611Z,99986.16
2022-12-31T15:25:38.346Z,99990.00
2022-12-31T15:28:24.668Z,99987.81
2022-12-31T15:31:01.201Z,99989.31
2022-12-31T15:33:36.440Z,99988.59
2022-12-31T15:36:20.290Z,100003.56
2022-12-31T15:38:47.943Z,100003.22
2022-12-31T15:41:16.347Z,99990.78
2022-12-31T15:43:51.878Z,99982.38
2022-12-31T15:46:32.800Z,99979.34
2022-12-31T15:49:19.251Z,99990.91
2022-12-31T15:51:57.208Z,99972.84
2022-12-31T15:54:38.605Z,99990.13
2022-12-31T15:57:12.180Z,99984.31
2022-12-31T15:59:40.033Z,99983.03
2022-12-31T16:02:20.877Z,99982.00
2022-12-31T16:04:48.130Z,99969.16
2022-12-31T16:07:15.920Z,99968.00
2022-12-31T16:09:45.080Z,99969.47
2022-12-31T16:12:32.728Z,99972.25
2022-12-31T16:15:01.715Z,99980.94
2022-12-31T16:17:34.635Z,99985.44
2022-12-31T16:20:22.387Z,99983.84
2022-12-31T16:22:54.808Z,99974.63
2022-12-31T16:25:31.299Z,99963.47
2022-12-31T16:28:00.821Z,99965.31
2022-12-31T16:30:32.480Z,99964.75
2022-12-31T16:33:01.887Z,99962.56
2022-12-31T16:35:29.979Z,99957.69
2022-12-31T16:38:17.394Z,99954.81
2022-12-31T16:41:01.398Z,99948.75
2022-12-31T16:43:39.574Z,99945.28
2022-12-31T16:46:16.372Z,99958.03
2022-12-31T16:48:54.149Z,99952.59
2022-12-31T16:51:24.263Z,99953.84
2022-12-31T16:53:51.645Z,99957.69
2022-12-31T16:56:34.942Z,99960.25
2022-12-31T16:59:05.801Z,99961.06
2022-12-31T17:01:35.733Z,99987.00
2022-12-31T17:04:08.100Z,99983.84
2022-12-31T17:06:34.770Z,100009.22
2022-12-31T17:09:12.989Z,100011.41
2022-12-31T17:12:12.360Z,100034.22
2022-12-31T17:14:51.124Z,100049.03
2022-12-31T17:17:30.026Z,100044.06
2022-12-31T17:20:01.581Z,100066.50
2022-12-31T17:22:40.340Z,100061.09
2022-12-31T17:25:07.560Z,100059.13
2022-12-31T17:27:35.826Z,100049.84
2022-12-31T17:30:22.693Z,100062.38
2022-12-31T17:32:50.637Z,100056.22
2022-12-31T17:35:33.397Z,100056.09
2022-12-31T17:38:18.337Z,100066.06
2022-12-31T17:40:51.415Z,100076.06
2022-12-31T17:43:21.117Z,100091.00
2022-12-31T17:45:50.486Z,100097.81
2022-12-31T17:48:19.302Z,100101.88
2022-12-31T17:50:51.623Z,100098.28
2022-12-31T17:53:18.864Z,100104.09
2022-12-31T17:55:49.899Z,100098.88
2022-12-31T17:58:43.408Z,100104.56
2022-12-31T18:01:11.830Z,100102.59
2022-12-31T18:03:38.437Z,100104.31
2022-12-31T18:06:05.539Z,100114.16
2022-12-31T18:08:32.363Z,100121.81
2022-12-31T18:10:58.917Z,100114.16
2022-12-31T18:13:27.257Z,100124.47
2022-12-31T18:15:54.422Z,100120.09
2022-12-31T18:18:26.633Z,100115.81
2022-12-31T18:21:07.433Z,100118.09
2022-12-31T18:23:48.005Z,100123.84
2022-12-31T18:26:16.501Z,100144.03
2022-12-31T18:28:43.068Z,100135.78
2022-12-31T18:31:19.967Z,100141.22
2022-12-31T18:33:47.533Z,100155.13
2022-12-31T18:36:15.905Z,100156.97
2022-12-31T18:38:42.925Z,100164.13
2022-12-31T18:41:22.712Z,100156.97
2022-12-31T18:43:49.955Z,100162.31
2022-12-31T18:46:19.589Z,100167.50
2022-12-31T18:48:46.183Z,100151.53
2022-12-31T18:51:29.629Z,100159.97
2022-12-31T18:53:59.632Z,100164.25
2022-12-31T18:56:26.510Z,100161.09
2022-12-31T18:58:53.358Z,100149.28
2022-12-31T19:01:29.402Z,100156.69
2022-12-31T19:03:58.942Z,100166.06
2022-12-31T19:06:25.865Z,100170.94
2022-12-31T19:08:52.609Z,100187.63
2022-12-31T19:11:20.243Z,100180.69
2022-12-31T19:13:46.802Z,100183.38
2022-12-31T19:16:14.116Z,100188.09
2022-12-31T19:18:41.753Z,100194.25
2022-12-31T19:21:20.921Z,100199.47
2022-12-31T19:23:47.504Z,100208.06
2022-12-31T19:26:20.842Z,100215.81
2022-12-31T19:28:48.518Z,100225.56
2022-12-31T19:31:17.209Z,100240.88
2022-12-31T19:33:44.091Z,100235.09
2022-12-31T19:36:18.779Z,100234.97
2022-12-31T19:38:45.600Z,100249.81
2022-12-31T19:41:20.168Z,100253.53
2022-12-31T19:43:48.070Z,100261.06
2022-12-31T19:46:16.616Z,100253.97
2022-12-31T19:48:43.857Z,100240.88
2022-12-31T19:51:15.138Z,100221.28
2022-12-31T19:53:41.626Z,100251.06
2022-12-31T19:56:13.814Z,100247.22
2022-12-31T19:58:40.322Z,100246.19
2022-12-31T20:01:08.057Z,100229.97
2022-12-31T20:03:34.956Z,100239.22
2022-12-31T20:06:07.580Z,100242.13
2022-12-31T20:08:35.909Z,100230.38
2022-12-31T20:11:20.309Z,100235.94
2022-12-31T20:13:48.106Z,100235.28
2022-12-31T20:16:18.319Z,100230.75
2022-12-31T20:18:46.840Z,100234.94
2022-12-31T20:21:25.073Z,100251.94
2022-12-31T20:23:53.230Z,100240.91
2022-12-31T20:26:21.271Z,100243.66
2022-12-31T20:28:48.536Z,100237.56
2022-12-31T20:31:30.348Z,100239.84
2022-12-31T20:33:56.921Z,100248.44
2022-12-31T20:36:24.309Z,100250.28
2022-12-31T20:38:50.884Z,100243.75
2022-12-31T20:41:20.002Z,100246.34
2022-12-31T20:43:47.170Z,100250.03
2022-12-31T20:46:23.697Z,100262.53
2022-12-31T20:48:52.428Z,100262.22
2022-12-31T20:51:20.967Z,100279.16
2022-12-31T20:53:55.651Z,100255.84
2022-12-31T20:56:23.572Z,100272.41
2022-12-31T20:58:50.261Z,100261.53
2022-12-31T21:01:18.147Z,100261.75
2022-12-31T21:04:06.585Z,100275.66
2022-12-31T21:06:35.391Z,100285.53
2022-12-31T21:09:03.984Z,100283.28
2022-12-31T21:11:49.148Z,100280.88
2022-12-31T21:14:15.827Z,100278.19
2022-12-31T21:16:42.394Z,100276.44
2022-12-31T21:19:09.921Z,100289.44
2022-12-31T21:21:36.583Z,100285.03
2022-12-31T21:24:03.498Z,100274.69
2022-12-31T21:26:30.661Z,100288.56
2022-12-31T21:28:57.196Z,100276.78
2022-12-31T21:31:23.722Z,100290.59
2022-12-31T21:33:51.329Z,100276.44
2022-12-31T21:36:18.068Z,100292.66
2022-12-31T21:38:44.793Z,100283.25
2022-12-31T21:41:35.055Z,100303.69
2022-12-31T21:44:02.477Z,100297.53
2022-12-31T21:46:29.455Z,100295.47
2022-12-31T21:48:57.568Z,100292.19
2022-12-31T21:51:24.584Z,100290.72
2022-12-31T21:53:51.550Z,100303.31
2022-12-31T21:56:21.398Z,100297.16
2022-12-31T21:59:15.498Z,100294.81
2022-12-31T22:02:01.493Z,100278.56
2022-12-31T22:05:00.989Z,100291.19
2022-12-31T22:07:17.196Z,100297.34
2022-12-31T22:09:43.679Z,100312.25
2022-12-31T22:12:10.536Z,100311.47
2022-12-31T22:14:37.123Z,100313.44
2022-12-31T22:17:03.689Z,100317.44
2022-12-31T22:19:30.468Z,100265.16
2022-12-31T22:21:56.953Z,100059.44
2022-12-31T22:24:23.472Z,100056.69
2022-12-31T22:26:50.961Z,100061.81
2022-12-31T22:29:19.230Z,100052.06
2022-12-31T22:31:45.791Z,100034.94
2022-12-31T22:34:12.338Z,100033.41
2022-12-31T22:36:38.839Z,100037.91
2022-12-31T22:39:05.332Z,100031.81
2022-12-31T22:41:31.922Z,100022.78
2022-12-31T22:44:03.638Z,100038.19
2022-12-31T22:46:31.843Z,100028.56
2022-12-31T22:49:00.150Z,100022.31
2022-12-31T22:51:56.902Z,100017.69
2022-12-31T22:54:15.747Z,100021.50
2022-12-31T22:56:42.381Z,100022.66
2022-12-31T22:59:09.409Z,100015.25
2022-12-31T23:01:35.986Z,100009.81
2022-12-31T23:04:02.967Z,100018.84
2022-12-31T23:06:29.768Z,100008.66
2022-12-31T23:09:15.247Z,100002.75
2022-12-31T23:11:43.321Z,100016.53
2022-12-31T23:14:34.869Z,100016.53
2022-12-31T23:17:30.253Z,99995.56
2022-12-31T23:20:16.664Z,100014.91
2022-12-31T23:23:01.930Z,100007.63
2022-12-31T23:25:32.186Z,99999.97
2022-12-31T23:27:59.030Z,100007.72
2022-12-31T23:30:25.572Z,99994.19
2022-12-31T23:32:52.085Z,99996.72
2022-12-31T23:35:18.701Z,100004.84
2022-12-31T23:37:45.376Z,100003.53
2022-12-31T23:40:17.191Z,100017.44
2022-12-31T23:42:47.282Z,100009.22
2022-12-31T23:45:13.802Z,100018.38
2022-12-31T23:47:40.251Z,100004.47
2022-12-31T23:50:07.388Z,100019.19
2022-12-31T23:52:33.951Z,100028.78
2022-12-31T23:55:00.482Z,100040.38
2022-12-31T23:57:27.059Z,100056.25
2022-12-31T23:59:53.557Z,100071.28
